Time;durP1;ratioP1;P1;durP2;ratioP2;P2;SDS_P1;SDS_P2;PMS_P1;PMS_P2;Temp;Humidity;BMP_temperature;BMP_pressure;BME280_temperature;BME280_humidity;BME280_pressure;Samples;Min_cycle;Max_cycle;Signal;HPM_P1;HPM_P2
2022/08/05 00:01:21;;;;;;;15.48;4.68;;;;;;;;;;4950755;28;20049;-74
2022/08/05 00:03:49;;;;;;;11.38;3.67;;;;;;;;;;4950368;28;20031;-74
2022/08/05 00:06:16;;;;;;;17.52;5.20;;;;;;;;;;4947878;28;20154;-72
2022/08/05 00:08:41;;;;;;;11.68;4.13;;;;;;;;;;4949713;28;20076;-73
2022/08/05 00:11:10;;;;;;;10.23;4.30;;;;;;;;;;4948545;28;20487;-73
2022/08/05 00:13:37;;;;;;;13.45;4.82;;;;;;;;;;4944851;28;20090;-72
2022/08/05 00:16:03;;;;;;;11.20;4.72;;;;;;;;;;4961870;28;20083;-72
2022/08/05 00:18:29;;;;;;;12.75;4.45;;;;;;;;;;4944978;28;20036;-72
2022/08/05 00:20:57;;;;;;;11.00;4.47;;;;;;;;;;4933410;29;20046;-73
2022/08/05 00:23:23;;;;;;;8.88;4.20;;;;;;;;;;4927106;28;20174;-73
2022/08/05 00:25:49;;;;;;;12.25;4.28;;;;;;;;;;4930008;28;20832;-77
2022/08/05 00:28:15;;;;;;;8.40;3.80;;;;;;;;;;4928020;28;20040;-70
2022/08/05 00:30:41;;;;;;;10.30;3.17;;;;;;;;;;4929032;28;20042;-73
2022/08/05 00:33:06;;;;;;;5.50;2.80;;;;;;;;;;4930755;28;20529;-75
2022/08/05 00:35:32;;;;;;;14.15;4.28;;;;;;;;;;4931456;29;20410;-71
2022/08/05 00:37:57;;;;;;;8.90;3.70;;;;;;;;;;4930568;29;20036;-72
2022/08/05 00:40:24;;;;;;;7.10;4.40;;;;;;;;;;4931433;28;20042;-72
2022/08/05 00:42:50;;;;;;;8.88;4.95;;;;;;;;;;4937675;28;20559;-72
2022/08/05 00:45:15;;;;;;;11.68;4.53;;;;;;;;;;4947385;28;20106;-76
2022/08/05 00:47:41;;;;;;;9.32;4.70;;;;;;;;;;4951834;28;20035;-71
2022/08/05 00:50:08;;;;;;;8.05;3.70;;;;;;;;;;4948426;28;20677;-73
2022/08/05 00:52:33;;;;;;;7.28;3.03;;;;;;;;;;4949198;28;20035;-71
2022/08/05 00:54:59;;;;;;;5.85;3.13;;;;;;;;;;4950218;28;20499;-71
2022/08/05 00:57:24;;;;;;;9.63;3.20;;;;;;;;;;4949189;28;20033;-74
2022/08/05 00:59:50;;;;;;;7.25;3.20;;;;;;;;;;4951480;28;20488;-73
2022/08/05 01:02:16;;;;;;;8.13;2.80;;;;;;;;;;4948833;28;20043;-73
2022/08/05 01:04:41;;;;;;;8.60;3.17;;;;;;;;;;4946963;28;20042;-78
2022/08/05 01:07:07;;;;;;;8.85;3.38;;;;;;;;;;4947882;28;20081;-75
2022/08/05 01:09:32;;;;;;;7.03;3.05;;;;;;;;;;4948451;28;20408;-73
2022/08/05 01:12:03;;;;;;;6.07;3.17;;;;;;;;;;4948731;28;20509;-73
2022/08/05 01:14:43;;;;;;;5.68;3.35;;;;;;;;;;4943202;28;20051;-74
2022/08/05 01:17:21;;;;;;;10.55;3.78;;;;;;;;;;4948368;28;20126;-75
2022/08/05 01:20:10;;;;;;;8.90;3.67;;;;;;;;;;4947443;28;20036;-75
2022/08/05 01:23:10;;;;;;;13.60;4.32;;;;;;;;;;4948525;28;20526;-75
2022/08/05 01:26:00;;;;;;;7.82;4.15;;;;;;;;;;4945359;28;20035;-75
2022/08/05 01:28:30;;;;;;;7.03;3.70;;;;;;;;;;4949451;28;20038;-73
2022/08/05 01:31:09;;;;;;;15.93;5.20;;;;;;;;;;4947081;28;20039;-73
2022/08/05 01:33:42;;;;;;;12.05;4.80;;;;;;;;;;4942478;28;20063;-74
2022/08/05 01:36:09;;;;;;;;;;;;;;;;;;4947754;28;21035;-73
2022/08/05 01:38:36;;;;;;;9.50;4.72;;;;;;;;;;4948115;28;20410;-74
2022/08/05 01:41:04;;;;;;;13.65;4.53;;;;;;;;;;4949000;28;20028;-72
2022/08/05 01:43:31;;;;;;;8.73;4.47;;;;;;;;;;4941439;28;20682;-73
2022/08/05 01:45:57;;;;;;;6.45;3.75;;;;;;;;;;4948173;28;20032;-75
2022/08/05 01:48:25;;;;;;;7.78;3.90;;;;;;;;;;4949692;28;20121;-74
2022/08/05 01:50:54;;;;;;;7.80;3.90;;;;;;;;;;4944962;28;20032;-74
2022/08/05 01:53:21;;;;;;;4.97;3.17;;;;;;;;;;4952240;28;20406;-76
2022/08/05 01:55:49;;;;;;;6.88;3.90;;;;;;;;;;4945496;28;20050;-74
2022/08/05 01:58:16;;;;;;;6.13;3.30;;;;;;;;;;4949999;28;20402;-79
2022/08/05 02:00:47;;;;;;;7.78;3.20;;;;;;;;;;4946130;28;20061;-74
2022/08/05 02:03:23;;;;;;;6.30;3.20;;;;;;;;;;4950130;28;20130;-74
2022/08/05 02:05:50;;;;;;;7.45;3.20;;;;;;;;;;4949058;28;20062;-74
2022/08/05 02:08:16;;;;;;;6.80;3.42;;;;;;;;;;4954834;28;20039;-74
2022/08/05 02:10:45;;;;;;;7.00;3.88;;;;;;;;;;4947086;28;20534;-73
2022/08/05 02:13:24;;;;;;;5.75;3.53;;;;;;;;;;4945156;28;20764;-74
2022/08/05 02:15:55;;;;;;;6.10;3.35;;;;;;;;;;4940292;28;20098;-73
2022/08/05 02:18:34;;;;;;;8.80;4.10;;;;;;;;;;4954613;28;20030;-73
2022/08/05 02:21:13;;;;;;;5.55;3.53;;;;;;;;;;4952138;28;20031;-73
2022/08/05 02:23:41;;;;;;;8.45;4.07;;;;;;;;;;4953910;28;20118;-74
2022/08/05 02:26:09;;;;;;;12.02;4.63;;;;;;;;;;4952474;28;20036;-76
2022/08/05 02:28:38;;;;;;;13.35;5.30;;;;;;;;;;4951988;28;20098;-75
2022/08/05 02:31:15;;;;;;;8.75;5.00;;;;;;;;;;4950629;28;20142;-75
2022/08/05 02:33:51;;;;;;;9.88;5.07;;;;;;;;;;4978945;28;20070;-74
2022/08/05 02:36:19;;;;;;;10.57;5.13;;;;;;;;;;4951556;28;20031;-74
2022/08/05 02:38:47;;;;;;;9.13;4.90;;;;;;;;;;4952486;28;20635;-75
2022/08/05 02:41:16;;;;;;;9.20;4.60;;;;;;;;;;4958320;28;20055;-75
2022/08/05 02:43:42;;;;;;;8.68;4.63;;;;;;;;;;4954016;28;20039;-74
2022/08/05 02:46:09;;;;;;;8.68;4.50;;;;;;;;;;4957923;28;20043;-73
2022/08/05 02:48:36;;;;;;;5.72;4.40;;;;;;;;;;4948177;28;20039;-75
2022/08/05 02:51:02;;;;;;;7.20;4.30;;;;;;;;;;4953512;28;20114;-75
2022/08/05 02:53:30;;;;;;;9.20;4.80;;;;;;;;;;4952491;28;20035;-74
2022/08/05 02:55:56;;;;;;;8.60;4.95;;;;;;;;;;4953123;28;20046;-75
2022/08/05 02:58:23;;;;;;;6.70;5.22;;;;;;;;;;4955504;28;20775;-75
2022/08/05 03:00:49;;;;;;;10.48;5.03;;;;;;;;;;4958942;28;20174;-75
2022/08/05 03:03:19;;;;;;;8.55;6.00;;;;;;;;;;4952763;28;20054;-75
2022/08/05 03:05:49;;;;;;;8.48;5.57;;;;;;;;;;4953484;28;20479;-75
2022/08/05 03:08:15;;;;;;;10.48;6.78;;;;;;;;;;4956258;28;20038;-75
2022/08/05 03:10:42;;;;;;;10.18;6.30;;;;;;;;;;4952325;28;20439;-73
2022/08/05 03:13:15;;;;;;;14.00;6.85;;;;;;;;;;4950966;28;20039;-73
2022/08/05 03:15:41;;;;;;;;;;;;;;;;;;4952288;28;20476;-72
2022/08/05 03:18:06;;;;;;;8.82;5.68;;;;;;;;;;4954255;28;19950;-74
2022/08/05 03:20:32;;;;;;;10.85;5.53;;;;;;;;;;4954246;28;20066;-75
2022/08/05 03:22:57;;;;;;;10.15;5.03;;;;;;;;;;4954915;28;20043;-74
2022/08/05 03:25:25;;;;;;;8.48;5.95;;;;;;;;;;4967233;28;20066;-74
2022/08/05 03:27:50;;;;;;;12.18;6.07;;;;;;;;;;4981719;28;20035;-75
2022/08/05 03:30:16;;;;;;;15.20;6.88;;;;;;;;;;4935072;28;20115;-74
2022/08/05 03:32:42;;;;;;;7.70;4.47;;;;;;;;;;4931361;28;20070;-76
2022/08/05 03:35:08;;;;;;;8.52;5.63;;;;;;;;;;4947715;28;20129;-76
2022/08/05 03:37:33;;;;;;;8.05;5.20;;;;;;;;;;4953293;28;20503;-74
2022/08/05 03:39:59;;;;;;;6.80;5.43;;;;;;;;;;4948789;28;20039;-74
2022/08/05 03:42:25;;;;;;;8.40;5.60;;;;;;;;;;4972235;28;20387;-75
2022/08/05 03:44:50;;;;;;;8.63;5.15;;;;;;;;;;4954975;28;20023;-79
2022/08/05 03:47:16;;;;;;;10.88;5.13;;;;;;;;;;4936346;28;20038;-74
2022/08/05 03:49:41;;;;;;;8.30;5.60;;;;;;;;;;4942886;28;20062;-75
2022/08/05 03:52:10;;;;;;;9.30;5.28;;;;;;;;;;4946847;28;20515;-76
2022/08/05 03:54:47;;;;;;;10.82;5.68;;;;;;;;;;4933671;28;20044;-75
2022/08/05 03:57:13;;;;;;;10.27;5.93;;;;;;;;;;4935256;28;20122;-75
2022/08/05 03:59:48;;;;;;;9.32;6.10;;;;;;;;;;4951285;28;20114;-75
2022/08/05 04:02:15;;;;;;;14.65;6.43;;;;;;;;;;4953819;28;20035;-74
2022/08/05 04:04:42;;;;;;;6.00;3.72;;;;;;;;;;4948124;28;20035;-76
2022/08/05 04:07:09;;;;;;;11.55;5.20;;;;;;;;;;4954914;28;20050;-74
2022/08/05 04:09:35;;;;;;;10.80;5.03;;;;;;;;;;4952987;28;20078;-75
2022/08/05 04:12:01;;;;;;;8.35;4.88;;;;;;;;;;4952904;28;20031;-75
2022/08/05 04:14:26;;;;;;;9.70;5.25;;;;;;;;;;4951146;28;20130;-74
2022/08/05 04:16:53;;;;;;;9.10;4.72;;;;;;;;;;4949995;28;20835;-74
2022/08/05 04:19:19;;;;;;;9.48;4.90;;;;;;;;;;4967718;28;20624;-74
2022/08/05 04:21:44;;;;;;;7.28;4.78;;;;;;;;;;4952224;28;20047;-75
2022/08/05 04:24:11;;;;;;;12.15;5.38;;;;;;;;;;4950170;28;20115;-73
2022/08/05 04:26:36;;;;;;;9.48;6.18;;;;;;;;;;4954089;28;20031;-73
2022/08/05 04:29:02;;;;;;;7.32;5.47;;;;;;;;;;4950987;28;20051;-74
2022/08/05 04:31:28;;;;;;;12.55;6.45;;;;;;;;;;4951199;28;20534;-74
2022/08/05 04:33:53;;;;;;;9.15;6.72;;;;;;;;;;4951772;28;20058;-77
2022/08/05 04:36:19;;;;;;;12.50;7.32;;;;;;;;;;4967640;28;20044;-73
2022/08/05 04:38:46;;;;;;;10.02;6.50;;;;;;;;;;4956599;28;20134;-73
2022/08/05 04:41:11;;;;;;;11.77;6.57;;;;;;;;;;4955930;28;20392;-75
2022/08/05 04:43:37;;;;;;;14.32;7.10;;;;;;;;;;4954456;28;20043;-73
2022/08/05 04:46:03;;;;;;;13.45;7.20;;;;;;;;;;4955328;28;20037;-74
2022/08/05 04:48:29;;;;;;;15.10;7.43;;;;;;;;;;4952662;28;20563;-73
2022/08/05 04:50:55;;;;;;;14.73;5.32;;;;;;;;;;4954184;28;20035;-74
2022/08/05 04:53:20;;;;;;;9.60;6.00;;;;;;;;;;4955917;28;20039;-74
2022/08/05 04:55:45;;;;;;;8.77;6.13;;;;;;;;;;4950620;28;20066;-74
2022/08/05 04:58:13;;;;;;;8.20;5.28;;;;;;;;;;4953805;28;20047;-76
2022/08/05 05:00:40;;;;;;;12.63;6.18;;;;;;;;;;4952597;28;20072;-74
2022/08/05 05:03:06;;;;;;;9.23;5.15;;;;;;;;;;4955569;28;21498;-75
2022/08/05 05:05:32;;;;;;;9.43;5.00;;;;;;;;;;4955835;28;20039;-73
2022/08/05 05:08:08;;;;;;;6.88;4.65;;;;;;;;;;4954109;28;20447;-74
2022/08/05 05:10:43;;;;;;;9.23;4.47;;;;;;;;;;4950072;28;20089;-77
2022/08/05 05:13:09;;;;;;;6.78;3.88;;;;;;;;;;4931934;28;20122;-75
2022/08/05 05:15:35;;;;;;;7.55;3.83;;;;;;;;;;4950671;28;20049;-74
2022/08/05 05:18:01;;;;;;;6.68;4.20;;;;;;;;;;4950656;28;20031;-74
2022/08/05 05:20:26;;;;;;;6.78;4.00;;;;;;;;;;4950599;28;20043;-74
2022/08/05 05:22:52;;;;;;;6.28;3.35;;;;;;;;;;4951789;28;20038;-74
2022/08/05 05:25:17;;;;;;;8.55;4.15;;;;;;;;;;4953574;28;20030;-72
2022/08/05 05:27:43;;;;;;;7.05;3.90;;;;;;;;;;4950621;28;20039;-75
2022/08/05 05:30:09;;;;;;;8.60;3.53;;;;;;;;;;4951754;28;20053;-75
2022/08/05 05:32:34;;;;;;;7.13;3.80;;;;;;;;;;4935304;29;20134;-75
2022/08/05 05:35:00;;;;;;;5.53;3.92;;;;;;;;;;4947958;28;20122;-74
2022/08/05 05:37:25;;;;;;;4.90;3.70;;;;;;;;;;4966205;28;20557;-72
2022/08/05 05:39:51;;;;;;;6.60;3.75;;;;;;;;;;4949912;28;20038;-74
2022/08/05 05:42:16;;;;;;;9.20;3.40;;;;;;;;;;4952756;28;20031;-73
2022/08/05 05:44:41;;;;;;;5.85;3.40;;;;;;;;;;4953720;28;20019;-74
2022/08/05 05:47:07;;;;;;;7.70;3.00;;;;;;;;;;4949312;28;20526;-73
2022/08/05 05:49:32;;;;;;;7.65;3.42;;;;;;;;;;4961987;28;20039;-74
2022/08/05 05:51:58;;;;;;;5.30;3.70;;;;;;;;;;4948469;28;20427;-74
2022/08/05 05:54:25;;;;;;;5.60;3.28;;;;;;;;;;4946207;28;20042;-74
2022/08/05 05:56:50;;;;;;;6.22;3.63;;;;;;;;;;4947123;28;20098;-72
2022/08/05 05:59:16;;;;;;;9.25;3.97;;;;;;;;;;4951705;28;20050;-73
2022/08/05 06:01:41;;;;;;;6.60;3.58;;;;;;;;;;4953295;28;20488;-77
2022/08/05 06:04:10;;;;;;;6.68;3.40;;;;;;;;;;4948819;28;21053;-74
2022/08/05 06:06:35;;;;;;;6.43;3.20;;;;;;;;;;4948245;28;20487;-73
2022/08/05 06:09:03;;;;;;;6.03;2.95;;;;;;;;;;4948028;28;20054;-75
2022/08/05 06:11:28;;;;;;;4.40;3.10;;;;;;;;;;4946053;28;20536;-73
2022/08/05 06:13:54;;;;;;;7.88;3.38;;;;;;;;;;4950544;28;20117;-75
2022/08/05 06:16:19;;;;;;;7.63;3.30;;;;;;;;;;4950311;28;20055;-74
2022/08/05 06:18:45;;;;;;;7.60;4.88;;;;;;;;;;4943392;28;20122;-74
2022/08/05 06:21:10;;;;;;;8.32;4.43;;;;;;;;;;4928885;28;20047;-76
2022/08/05 06:23:35;;;;;;;10.63;3.65;;;;;;;;;;4950704;28;20407;-74
2022/08/05 06:26:01;;;;;;;6.95;4.00;;;;;;;;;;4946269;28;20062;-73
2022/08/05 06:28:27;;;;;;;12.88;3.72;;;;;;;;;;4945240;28;20062;-75
2022/08/05 06:30:52;;;;;;;13.93;3.25;;;;;;;;;;4946644;28;20042;-74
2022/08/05 06:33:18;;;;;;;6.63;3.20;;;;;;;;;;4950214;28;20039;-74
2022/08/05 06:35:43;;;;;;;3.78;3.20;;;;;;;;;;4951218;28;20046;-75
2022/08/05 06:38:09;;;;;;;7.03;3.33;;;;;;;;;;4950729;28;20527;-74
2022/08/05 06:40:34;;;;;;;5.32;3.28;;;;;;;;;;4954821;28;20039;-74
2022/08/05 06:42:59;;;;;;;7.28;3.15;;;;;;;;;;4949527;28;20035;-72
2022/08/05 06:45:25;;;;;;;8.82;3.38;;;;;;;;;;4950403;28;20137;-74
2022/08/05 06:47:51;;;;;;;7.00;3.50;;;;;;;;;;4951885;28;20023;-74
2022/08/05 06:50:17;;;;;;;6.85;3.72;;;;;;;;;;4949976;28;20403;-75
2022/08/05 06:52:42;;;;;;;6.30;3.30;;;;;;;;;;4951105;28;20031;-73
2022/08/05 06:55:08;;;;;;;6.88;3.70;;;;;;;;;;4951574;28;20819;-74
2022/08/05 06:57:33;;;;;;;6.28;3.83;;;;;;;;;;4950142;28;20051;-74
2022/08/05 06:59:58;;;;;;;7.38;3.50;;;;;;;;;;4954019;28;20043;-73
2022/08/05 07:02:24;;;;;;;5.72;3.40;;;;;;;;;;4932358;28;20500;-74
2022/08/05 07:04:49;;;;;;;49.35;31.52;;;;;;;;;;4943010;28;20039;-74
2022/08/05 07:07:15;;;;;;;6.03;3.72;;;;;;;;;;4950632;28;20047;-75
2022/08/05 07:09:40;;;;;;;8.60;4.47;;;;;;;;;;4949644;28;20042;-77
2022/08/05 07:12:06;;;;;;;5.20;3.95;;;;;;;;;;4950853;28;20468;-75
2022/08/05 07:17:15;;;;;;;6.18;3.30;;;;;;;;;;4950105;28;20110;-75
2022/08/05 07:19:41;;;;;;;5.85;3.65;;;;;;;;;;4954210;28;20047;-75
2022/08/05 07:22:06;;;;;;;6.05;2.60;;;;;;;;;;4949721;28;20063;-74
2022/08/05 07:24:31;;;;;;;2.92;2.58;;;;;;;;;;4948398;28;20050;-74
2022/08/05 07:26:57;;;;;;;6.63;3.05;;;;;;;;;;4952240;28;20019;-75
2022/08/05 07:29:22;;;;;;;10.82;3.15;;;;;;;;;;4951952;28;20395;-73
2022/08/05 07:31:47;;;;;;;4.10;2.58;;;;;;;;;;4950187;28;20047;-73
2022/08/05 07:34:13;;;;;;;5.22;2.95;;;;;;;;;;4945024;28;20134;-74
2022/08/05 07:36:38;;;;;;;4.18;3.10;;;;;;;;;;4935245;28;20047;-73
2022/08/05 07:39:06;;;;;;;5.03;2.60;;;;;;;;;;4949327;28;20054;-75
2022/08/05 07:41:32;;;;;;;4.57;3.00;;;;;;;;;;4948881;28;20035;-74
2022/08/05 07:43:58;;;;;;;4.90;2.75;;;;;;;;;;4934478;28;20035;-74
2022/08/05 07:46:28;;;;;;;4.63;2.20;;;;;;;;;;4939746;28;20404;-74
2022/08/05 07:48:55;;;;;;;3.85;2.25;;;;;;;;;;4951312;28;20039;-73
2022/08/05 07:51:21;;;;;;;3.67;2.30;;;;;;;;;;4952261;28;20058;-73
2022/08/05 07:53:46;;;;;;;6.38;2.70;;;;;;;;;;4953127;28;20106;-75
2022/08/05 07:56:11;;;;;;;3.75;2.50;;;;;;;;;;4948325;28;20071;-75
2022/08/05 07:58:37;;;;;;;5.97;2.22;;;;;;;;;;4950729;28;20043;-74
2022/08/05 08:01:02;;;;;;;4.60;2.10;;;;;;;;;;4949969;28;20436;-74
2022/08/05 08:03:28;;;;;;;4.53;2.17;;;;;;;;;;4953383;28;20125;-74
2022/08/05 08:05:53;;;;;;;5.30;2.60;;;;;;;;;;4953592;28;20038;-75
2022/08/05 08:08:19;;;;;;;4.30;2.33;;;;;;;;;;4951725;28;20620;-77
2022/08/05 08:10:44;;;;;;;3.72;2.60;;;;;;;;;;4951367;28;20047;-74
2022/08/05 08:13:10;;;;;;;3.92;2.10;;;;;;;;;;4950557;28;20037;-74
2022/08/05 08:15:35;;;;;;;6.75;2.25;;;;;;;;;;4953244;28;20054;-73
2022/08/05 08:18:00;;;;;;;2.70;2.45;;;;;;;;;;4951940;28;20027;-74
2022/08/05 08:20:26;;;;;;;4.03;2.40;;;;;;;;;;4952384;28;20047;-73
2022/08/05 08:22:53;;;;;;;7.18;2.40;;;;;;;;;;4936814;28;20047;-73
2022/08/05 08:25:18;;;;;;;3.25;2.33;;;;;;;;;;4937953;28;20067;-73
2022/08/05 08:27:44;;;;;;;3.03;2.15;;;;;;;;;;4955831;28;20043;-73
2022/08/05 08:30:12;;;;;;;2.78;1.95;;;;;;;;;;4949293;28;20027;-74
2022/08/05 08:32:38;;;;;;;4.57;2.08;;;;;;;;;;4953796;28;20042;-74
2022/08/05 08:35:04;;;;;;;3.22;1.80;;;;;;;;;;4949848;28;20412;-73
2022/08/05 08:37:29;;;;;;;3.47;1.90;;;;;;;;;;4955584;28;20151;-74
2022/08/05 08:39:55;;;;;;;2.63;2.03;;;;;;;;;;4949781;28;20043;-73
2022/08/05 08:42:21;;;;;;;2.30;1.50;;;;;;;;;;4951151;28;20050;-74
2022/08/05 08:44:48;;;;;;;3.75;1.77;;;;;;;;;;4950515;28;20023;-73
2022/08/05 08:47:14;;;;;;;4.60;2.00;;;;;;;;;;4947643;28;20031;-74
2022/08/05 08:49:43;;;;;;;3.38;2.10;;;;;;;;;;4948155;28;20047;-74
2022/08/05 08:52:18;;;;;;;3.50;2.05;;;;;;;;;;4947711;28;20054;-75
2022/08/05 08:54:46;;;;;;;4.10;1.70;;;;;;;;;;4950225;28;20039;-73
2022/08/05 08:57:12;;;;;;;3.88;2.17;;;;;;;;;;4947445;28;20074;-75
2022/08/05 08:59:38;;;;;;;4.22;2.00;;;;;;;;;;4950254;28;20067;-74
2022/08/05 09:02:05;;;;;;;2.65;1.75;;;;;;;;;;4936113;28;20058;-74
2022/08/05 09:04:36;;;;;;;3.95;1.90;;;;;;;;;;4943005;28;20122;-75
2022/08/05 09:07:06;;;;;;;3.13;1.70;;;;;;;;;;4949100;28;20031;-74
2022/08/05 09:09:35;;;;;;;2.55;1.80;;;;;;;;;;4947959;28;20041;-76
2022/08/05 09:12:04;;;;;;;2.67;2.33;;;;;;;;;;4947618;28;20038;-72
2022/08/05 09:14:33;;;;;;;2.95;1.88;;;;;;;;;;4947025;28;20043;-73
2022/08/05 09:17:00;;;;;;;5.03;2.10;;;;;;;;;;4943417;28;20527;-71
2022/08/05 09:19:26;;;;;;;3.65;2.00;;;;;;;;;;4947091;28;20057;-69
2022/08/05 09:21:51;;;;;;;3.17;1.80;;;;;;;;;;4946498;28;20503;-71
2022/08/05 09:24:16;;;;;;;5.20;2.08;;;;;;;;;;4945712;28;20062;-71
2022/08/05 09:26:49;;;;;;;3.50;1.80;;;;;;;;;;4949931;28;20489;-72
2022/08/05 09:29:15;;;;;;;3.25;1.67;;;;;;;;;;4945331;28;20100;-73
2022/08/05 09:31:42;;;;;;;2.28;1.80;;;;;;;;;;4949196;28;20495;-71
2022/08/05 09:34:09;;;;;;;2.25;1.70;;;;;;;;;;4948145;28;20062;-74
2022/08/05 09:36:42;;;;;;;2.75;1.98;;;;;;;;;;4945544;28;20042;-74
2022/08/05 09:39:10;;;;;;;3.15;1.67;;;;;;;;;;4943261;28;20118;-72
2022/08/05 09:42:00;;;;;;;3.50;1.80;;;;;;;;;;4944831;28;20126;-74
2022/08/05 09:44:40;;;;;;;2.30;1.70;;;;;;;;;;4929546;28;20047;-72
2022/08/05 09:47:10;;;;;;;2.20;2.00;;;;;;;;;;4945331;28;20032;-72
2022/08/05 09:49:40;;;;;;;2.05;1.73;;;;;;;;;;4943432;28;20463;-75
2022/08/05 09:52:16;;;;;;;1.92;1.70;;;;;;;;;;4945959;28;20046;-72
2022/08/05 09:54:54;;;;;;;1.92;1.73;;;;;;;;;;4945865;28;20043;-73
2022/08/05 09:57:37;;;;;;;2.63;1.90;;;;;;;;;;4949525;28;20043;-72
2022/08/05 10:00:12;;;;;;;2.10;1.90;;;;;;;;;;4946358;28;20023;-76
2022/08/05 10:02:38;;;;;;;3.60;1.92;;;;;;;;;;4949776;28;20047;-74
2022/08/05 10:05:12;;;;;;;2.65;2.20;;;;;;;;;;4930402;28;20419;-73
2022/08/05 10:07:48;;;;;;;2.92;2.40;;;;;;;;;;4928193;28;20527;-73
2022/08/05 10:10:14;;;;;;;2.50;1.90;;;;;;;;;;4920816;29;20031;-72
2022/08/05 10:12:46;;;;;;;2.53;2.10;;;;;;;;;;4932774;28;20491;-72
2022/08/05 10:15:20;;;;;;;2.90;2.47;;;;;;;;;;4944693;28;20023;-72
2022/08/05 10:18:02;;;;;;;2.30;2.10;;;;;;;;;;4929109;29;20066;-74
2022/08/05 10:20:28;;;;;;;1.87;1.70;;;;;;;;;;4946489;28;20036;-73
2022/08/05 10:22:55;;;;;;;2.28;2.05;;;;;;;;;;4946214;28;20043;-72
2022/08/05 10:25:20;;;;;;;2.40;2.03;;;;;;;;;;4945993;28;20098;-71
2022/08/05 10:27:46;;;;;;;2.42;1.98;;;;;;;;;;4943383;28;20040;-73
2022/08/05 10:30:11;;;;;;;2.40;2.20;;;;;;;;;;4926117;28;20031;-72
2022/08/05 10:32:38;;;;;;;3.22;2.03;;;;;;;;;;4951169;28;20499;-73
2022/08/05 10:35:04;;;;;;;3.55;2.17;;;;;;;;;;4927572;28;20056;-73
2022/08/05 10:37:30;;;;;;;3.72;2.10;;;;;;;;;;4939019;28;20068;-73
2022/08/05 10:39:59;;;;;;;3.80;2.38;;;;;;;;;;4946861;28;20138;-70
2022/08/05 10:42:26;;;;;;;2.67;2.05;;;;;;;;;;4947501;28;20031;-72
2022/08/05 10:44:54;;;;;;;3.42;2.05;;;;;;;;;;4946856;28;20035;-73
2022/08/05 10:47:29;;;;;;;2.63;2.13;;;;;;;;;;4961535;28;20130;-72
2022/08/05 10:50:11;;;;;;;3.13;2.00;;;;;;;;;;4947565;28;20098;-73
2022/08/05 10:53:03;;;;;;;3.40;1.90;;;;;;;;;;4949817;28;20150;-72
2022/08/05 10:55:30;;;;;;;4.90;2.92;;;;;;;;;;4944996;28;20501;-72
2022/08/05 10:58:08;;;;;;;3.28;2.50;;;;;;;;;;4948089;28;20047;-71
2022/08/05 11:00:33;;;;;;;3.80;2.05;;;;;;;;;;4947466;28;20039;-72
2022/08/05 11:03:04;;;;;;;4.00;2.20;;;;;;;;;;4950235;28;20027;-72
2022/08/05 11:05:31;;;;;;;3.15;2.30;;;;;;;;;;4943773;28;20125;-73
2022/08/05 11:07:59;;;;;;;3.67;3.05;;;;;;;;;;4945001;28;20034;-73
2022/08/05 11:10:25;;;;;;;6.10;2.67;;;;;;;;;;4945942;28;20182;-72
2022/08/05 11:12:51;;;;;;;2.88;2.20;;;;;;;;;;4947069;28;20078;-72
2022/08/05 11:15:29;;;;;;;3.17;2.45;;;;;;;;;;4949456;28;20488;-70
2022/08/05 11:18:23;;;;;;;3.35;2.40;;;;;;;;;;4949772;28;20032;-72
2022/08/05 11:20:50;;;;;;;5.63;2.90;;;;;;;;;;4930872;29;20151;-70
2022/08/05 11:23:27;;;;;;;2.47;2.28;;;;;;;;;;4929823;28;20036;-72
2022/08/05 11:26:01;;;;;;;4.00;2.60;;;;;;;;;;4942118;28;20075;-73
2022/08/05 11:28:26;;;;;;;5.78;2.53;;;;;;;;;;4946705;28;20039;-73
2022/08/05 11:31:00;;;;;;;3.28;2.60;;;;;;;;;;4953372;28;20527;-74
2022/08/05 11:33:27;;;;;;;4.38;2.50;;;;;;;;;;4950772;28;20102;-72
2022/08/05 11:36:00;;;;;;;2.58;2.03;;;;;;;;;;4951097;28;20066;-73
2022/08/05 11:38:37;;;;;;;2.58;2.33;;;;;;;;;;4952285;28;20433;-70
2022/08/05 11:41:04;;;;;;;4.00;2.47;;;;;;;;;;4965720;28;20110;-72
2022/08/05 11:43:30;;;;;;;4.50;2.53;;;;;;;;;;4940765;28;20512;-74
2022/08/05 11:45:56;;;;;;;2.95;2.50;;;;;;;;;;4933807;29;20027;-71
2022/08/05 11:48:21;;;;;;;5.47;2.33;;;;;;;;;;4932355;28;20023;-71
2022/08/05 11:50:49;;;;;;;4.75;2.63;;;;;;;;;;4950927;28;20035;-72
2022/08/05 11:53:15;;;;;;;4.60;2.70;;;;;;;;;;4947661;28;20044;-72
2022/08/05 11:55:55;;;;;;;2.90;2.60;;;;;;;;;;4951432;28;20035;-70
2022/08/05 11:58:33;;;;;;;2.42;2.22;;;;;;;;;;4937527;28;20048;-72
2022/08/05 12:01:13;;;;;;;5.93;2.75;;;;;;;;;;4931631;29;20508;-69
2022/08/05 12:03:42;;;;;;;5.95;2.40;;;;;;;;;;4945981;28;20046;-71
2022/08/05 12:06:08;;;;;;;3.85;2.53;;;;;;;;;;4930954;29;20110;-74
2022/08/05 12:08:40;;;;;;;6.55;2.63;;;;;;;;;;4932517;29;20118;-74
2022/08/05 12:11:08;;;;;;;4.28;2.78;;;;;;;;;;4934232;28;20050;-76
2022/08/05 12:13:33;;;;;;;3.33;2.83;;;;;;;;;;4935114;28;20078;-74
2022/08/05 12:15:59;;;;;;;3.45;2.80;;;;;;;;;;4933323;28;20047;-75
2022/08/05 12:18:32;;;;;;;5.20;2.83;;;;;;;;;;4929587;29;20027;-76
2022/08/05 12:21:16;;;;;;;3.88;2.70;;;;;;;;;;4931106;29;20047;-73
2022/08/05 12:24:01;;;;;;;3.17;2.80;;;;;;;;;;4932004;29;20047;-72
2022/08/05 12:26:31;;;;;;;5.95;3.17;;;;;;;;;;4947277;28;20131;-72
2022/08/05 12:28:56;;;;;;;3.40;2.80;;;;;;;;;;4941042;28;20483;-72
2022/08/05 12:31:22;;;;;;;2.97;2.50;;;;;;;;;;4929691;28;20123;-74
2022/08/05 12:33:48;;;;;;;4.80;3.08;;;;;;;;;;4942266;28;20034;-73
2022/08/05 12:36:14;;;;;;;2.80;2.60;;;;;;;;;;4947842;28;20058;-73
2022/08/05 12:38:40;;;;;;;3.72;2.60;;;;;;;;;;4952487;28;20137;-72
2022/08/05 12:41:12;;;;;;;4.50;2.80;;;;;;;;;;4950705;28;20308;-72
2022/08/05 12:43:55;;;;;;;3.20;2.90;;;;;;;;;;4937250;28;20054;-72
2022/08/05 12:46:29;;;;;;;3.65;2.80;;;;;;;;;;4938152;28;20154;-72
2022/08/05 12:48:59;;;;;;;3.42;2.72;;;;;;;;;;4951148;28;20043;-74
2022/08/05 12:51:26;;;;;;;5.10;3.30;;;;;;;;;;4963937;28;20495;-71
2022/08/05 12:53:58;;;;;;;3.78;2.92;;;;;;;;;;4950375;28;20038;-78
2022/08/05 12:56:24;;;;;;;4.90;3.00;;;;;;;;;;4947301;28;20399;-72
2022/08/05 12:59:15;;;;;;;4.32;2.70;;;;;;;;;;4946298;28;20035;-72
2022/08/05 13:01:44;;;;;;;6.45;2.90;;;;;;;;;;4929257;29;20069;-74
2022/08/05 13:04:10;;;;;;;3.95;2.88;;;;;;;;;;4954271;28;20073;-71
2022/08/05 13:06:38;;;;;;;3.63;3.00;;;;;;;;;;4949093;28;20035;-71
2022/08/05 13:09:08;;;;;;;3.63;3.30;;;;;;;;;;4948085;28;20023;-72
2022/08/05 13:11:39;;;;;;;3.95;2.85;;;;;;;;;;4951994;28;20043;-71
2022/08/05 13:14:16;;;;;;;4.97;3.35;;;;;;;;;;4950551;28;20046;-72
2022/08/05 13:16:46;;;;;;;3.70;2.97;;;;;;;;;;4950305;28;20372;-72
2022/08/05 13:19:11;;;;;;;3.72;2.85;;;;;;;;;;4951712;28;20059;-72
2022/08/05 13:21:37;;;;;;;3.35;2.70;;;;;;;;;;4950769;28;20090;-71
2022/08/05 13:24:02;;;;;;;3.63;3.30;;;;;;;;;;4949145;28;20030;-74
2022/08/05 13:26:29;;;;;;;4.82;3.88;;;;;;;;;;4951794;28;20399;-73
2022/08/05 13:28:54;;;;;;;4.55;3.80;;;;;;;;;;4933277;28;20408;-74
2022/08/05 13:31:20;;;;;;;12.13;4.93;;;;;;;;;;4939069;28;20028;-73
2022/08/05 13:33:45;;;;;;;11.10;4.97;;;;;;;;;;4954226;28;20523;-77
2022/08/05 13:36:12;;;;;;;9.18;5.90;;;;;;;;;;4952875;28;20086;-74
2022/08/05 13:38:37;;;;;;;9.63;6.43;;;;;;;;;;4945841;28;20046;-73
2022/08/05 13:41:02;;;;;;;10.05;6.88;;;;;;;;;;4934407;28;20419;-74
2022/08/05 13:43:28;;;;;;;8.70;6.97;;;;;;;;;;4932695;28;20039;-75
2022/08/05 13:45:53;;;;;;;7.50;6.55;;;;;;;;;;4937646;28;20039;-73
2022/08/05 13:48:19;;;;;;;6.75;6.07;;;;;;;;;;4949105;28;20035;-73
2022/08/05 13:50:44;;;;;;;7.13;5.82;;;;;;;;;;4951465;28;20074;-73
2022/08/05 13:53:10;;;;;;;6.93;6.20;;;;;;;;;;4949001;28;20388;-73
2022/08/05 13:55:35;;;;;;;6.35;5.75;;;;;;;;;;4939328;28;20162;-75
2022/08/05 13:58:00;;;;;;;6.13;5.53;;;;;;;;;;4934995;28;20420;-74
2022/08/05 14:00:26;;;;;;;9.27;5.70;;;;;;;;;;4958358;28;20110;-74
2022/08/05 14:02:51;;;;;;;6.38;5.63;;;;;;;;;;4949626;28;20505;-76
2022/08/05 14:05:17;;;;;;;9.32;6.25;;;;;;;;;;4928723;28;20091;-75
2022/08/05 14:07:44;;;;;;;12.77;9.40;;;;;;;;;;4941636;28;20388;-76
2022/08/05 14:10:15;;;;;;;11.68;10.13;;;;;;;;;;4951653;28;20113;-74
2022/08/05 14:12:41;;;;;;;13.02;11.63;;;;;;;;;;4949905;28;20054;-74
2022/08/05 14:15:07;;;;;;;14.43;12.10;;;;;;;;;;4949142;28;20488;-76
2022/08/05 14:17:33;;;;;;;16.13;13.57;;;;;;;;;;4944229;28;20579;-76
2022/08/05 14:19:59;;;;;;;16.88;14.45;;;;;;;;;;4948745;28;20136;-76
2022/08/05 14:22:24;;;;;;;18.55;15.90;;;;;;;;;;4948735;28;20035;-80
2022/08/05 14:24:50;;;;;;;18.75;15.48;;;;;;;;;;4952691;28;20059;-75
2022/08/05 14:27:16;;;;;;;17.77;15.80;;;;;;;;;;4941958;28;20098;-72
2022/08/05 14:29:41;;;;;;;15.57;13.70;;;;;;;;;;4950005;28;20130;-73
2022/08/05 14:32:06;;;;;;;17.52;15.05;;;;;;;;;;4949279;28;20576;-74
2022/08/05 14:34:32;;;;;;;15.63;12.65;;;;;;;;;;4944812;28;20098;-74
2022/08/05 14:36:58;;;;;;;15.75;13.77;;;;;;;;;;4950522;28;20055;-74
2022/08/05 14:39:24;;;;;;;17.02;13.18;;;;;;;;;;4963331;28;20431;-73
2022/08/05 14:41:50;;;;;;;13.07;11.52;;;;;;;;;;4948380;28;20059;-73
2022/08/05 14:44:15;;;;;;;13.80;11.15;;;;;;;;;;4945105;28;20571;-75
2022/08/05 14:46:40;;;;;;;13.88;10.25;;;;;;;;;;4948978;28;20086;-73
2022/08/05 14:49:06;;;;;;;11.05;9.32;;;;;;;;;;4948414;28;20122;-76